createdAt,value
2017-09-23T00:02:12.043Z,93.73
2017-09-23T00:04:39.622Z,97.43
2017-09-23T00:07:07.206Z,89.73
2017-09-23T00:09:34.786Z,98.93
2017-09-23T00:12:02.382Z,90.40
2017-09-23T00:14:29.991Z,94.37
2017-09-23T00:16:57.582Z,86.40
2017-09-23T00:19:25.992Z,85.00
2017-09-23T00:21:53.578Z,105.00
2017-09-23T00:24:21.178Z,89.40
2017-09-23T00:26:48.791Z,89.83
2017-09-23T00:29:16.366Z,96.53
2017-09-23T00:31:43.980Z,101.13
2017-09-23T00:34:12.339Z,96.20
2017-09-23T00:36:39.982Z,103.13
2017-09-23T00:39:07.576Z,97.00
2017-09-23T00:41:35.950Z,99.80
2017-09-23T00:44:03.552Z,94.20
2017-09-23T00:46:31.194Z,93.40
2017-09-23T00:48:59.554Z,94.40
2017-09-23T00:51:27.117Z,98.33
2017-09-23T00:53:55.494Z,92.77
2017-09-23T00:56:23.156Z,97.07
2017-09-23T00:58:50.778Z,92.73
2017-09-23T01:01:18.388Z,96.17
2017-09-23T01:03:46.768Z,103.33
2017-09-23T01:06:15.230Z,97.47
2017-09-23T01:08:42.829Z,98.50
2017-09-23T01:11:11.227Z,103.83
2017-09-23T01:13:38.977Z,111.80
2017-09-23T01:16:07.349Z,104.30
2017-09-23T01:18:35.722Z,107.00
2017-09-23T01:21:04.069Z,99.67
2017-09-23T01:23:31.665Z,105.73
2017-09-23T01:26:00.028Z,103.23
2017-09-23T01:28:27.614Z,106.43
2017-09-23T01:30:55.234Z,101.07
2017-09-23T01:33:22.986Z,108.50
2017-09-23T01:35:50.603Z,103.73
2017-09-23T01:51:18.211Z,98.80
2017-09-23T01:53:45.814Z,102.57
2017-09-23T01:56:13.414Z,105.97
2017-09-23T01:58:41.001Z,104.43
2017-09-23T02:01:08.750Z,111.67
2017-09-23T02:03:36.339Z,98.73
2017-09-23T02:06:03.940Z,106.43
2017-09-23T02:08:31.527Z,100.00
2017-09-23T02:10:59.138Z,92.43
2017-09-23T02:13:27.510Z,83.77
2017-09-23T02:15:55.896Z,92.93
2017-09-23T02:18:24.245Z,82.70
2017-09-23T02:20:51.859Z,87.50
2017-09-23T02:23:19.459Z,78.47
2017-09-23T02:25:47.045Z,84.83
2017-09-23T02:28:14.706Z,83.47
2017-09-23T02:30:42.304Z,72.40
2017-09-23T02:33:09.916Z,77.00
2017-09-23T02:35:37.526Z,85.83
2017-09-23T02:38:05.135Z,82.33
2017-09-23T02:40:32.738Z,87.10
2017-09-23T02:43:01.106Z,100.87
2017-09-23T02:45:29.493Z,101.63
2017-09-23T02:47:57.831Z,114.27
2017-09-23T02:50:25.431Z,105.80
2017-09-23T02:52:53.802Z,110.73
2017-09-23T02:55:22.170Z,102.97
2017-09-23T02:57:49.771Z,107.97
2017-09-23T03:00:17.358Z,115.33
2017-09-23T03:02:44.962Z,111.77
2017-09-23T03:05:12.540Z,109.80
2017-09-23T03:07:40.930Z,103.73
2017-09-23T03:10:08.523Z,92.47
2017-09-23T03:12:36.125Z,102.30
2017-09-23T03:15:03.704Z,93.30
2017-09-23T03:17:32.096Z,99.13
2017-09-23T03:19:59.678Z,95.93
2017-09-23T03:22:27.261Z,96.57
2017-09-23T03:24:54.845Z,98.90
2017-09-23T03:27:22.446Z,98.27
2017-09-23T03:29:50.094Z,97.47
2017-09-23T03:32:18.441Z,118.07
2017-09-23T03:34:46.026Z,110.87
2017-09-23T03:37:14.377Z,109.70
2017-09-23T03:39:41.970Z,118.50
2017-09-23T03:42:10.309Z,119.87
2017-09-23T03:44:37.905Z,129.77
2017-09-23T03:47:06.338Z,110.00
2017-09-23T03:49:33.926Z,128.90
2017-09-23T03:52:01.544Z,122.73
2017-09-23T03:54:29.886Z,146.00
2017-09-23T03:56:58.258Z,147.00
2017-09-23T03:59:25.842Z,144.47
2017-09-23T04:01:53.421Z,127.20
2017-09-23T04:04:21.033Z,140.90
2017-09-23T04:06:48.641Z,137.57
2017-09-23T04:09:16.241Z,151.20
2017-09-23T04:11:43.822Z,145.30
2017-09-23T04:14:11.437Z,144.47
2017-09-23T04:16:39.019Z,152.47
2017-09-23T04:19:06.615Z,140.10
2017-09-23T04:21:34.979Z,146.00
2017-09-23T04:24:02.602Z,154.43
2017-09-23T04:26:30.182Z,138.53
2017-09-23T04:28:57.777Z,138.60
2017-09-23T04:31:26.137Z,143.87
2017-09-23T04:33:53.718Z,150.03
2017-09-23T04:36:22.174Z,149.23
2017-09-23T04:38:49.746Z,137.53
2017-09-23T04:41:17.397Z,142.63
2017-09-23T04:43:44.977Z,148.50
2017-09-23T04:46:13.345Z,152.57
2017-09-23T04:48:40.966Z,153.20
2017-09-23T04:51:08.555Z,162.03
2017-09-23T04:53:36.146Z,155.60
2017-09-23T04:56:04.504Z,171.80
2017-09-23T04:58:32.118Z,190.33
2017-09-23T05:00:59.709Z,174.40
2017-09-23T05:03:27.383Z,180.63
2017-09-23T05:05:54.980Z,174.53
2017-09-23T05:08:23.335Z,162.70
2017-09-23T05:10:50.929Z,188.00
2017-09-23T05:15:52.442Z,166.17
2017-09-23T05:18:20.036Z,162.13
2017-09-23T05:20:48.399Z,171.40
2017-09-23T05:23:16.034Z,161.90
2017-09-23T05:25:44.457Z,166.93
2017-09-23T05:28:12.067Z,161.57
2017-09-23T05:30:40.458Z,171.30
2017-09-23T05:33:08.047Z,160.93
2017-09-23T05:35:35.658Z,175.00
2017-09-23T05:38:03.258Z,155.23
2017-09-23T05:40:30.977Z,171.80
2017-09-23T05:42:58.586Z,171.97
2017-09-23T05:45:26.190Z,156.00
2017-09-23T05:47:54.585Z,168.93
2017-09-23T05:50:22.176Z,163.63
2017-09-23T05:52:49.766Z,170.53
2017-09-23T05:55:17.388Z,148.93
2017-09-23T05:57:45.758Z,159.07
2017-09-23T06:00:13.411Z,163.37
2017-09-23T06:02:41.050Z,162.97
2017-09-23T06:05:08.647Z,172.43
2017-09-23T06:07:36.269Z,150.80
2017-09-23T06:10:03.899Z,149.50
2017-09-23T06:12:31.556Z,150.40
2017-09-23T06:14:59.188Z,158.87
2017-09-23T06:17:26.858Z,140.90
2017-09-23T06:19:54.479Z,145.30
2017-09-23T06:22:22.066Z,138.57
2017-09-23T06:24:49.649Z,144.47
2017-09-23T06:27:17.282Z,130.77
2017-09-23T06:29:45.656Z,128.70
2017-09-23T06:32:14.034Z,130.17
2017-09-23T06:34:42.413Z,141.07
2017-09-23T06:37:10.793Z,127.97
2017-09-23T06:39:39.169Z,132.30
2017-09-23T06:42:07.559Z,127.33
2017-09-23T06:44:35.931Z,127.57
2017-09-23T06:47:04.294Z,130.47
2017-09-23T06:49:31.916Z,115.73
2017-09-23T06:51:59.530Z,105.90
2017-09-23T06:54:27.109Z,114.50
2017-09-23T06:56:55.474Z,115.43
2017-09-23T06:59:23.851Z,126.90
2017-09-23T07:01:51.505Z,116.37
2017-09-23T07:04:19.086Z,116.53
2017-09-23T07:06:47.452Z,117.87
2017-09-23T07:09:15.061Z,101.57
2017-09-23T07:11:43.410Z,107.40
2017-09-23T07:14:11.807Z,100.23
2017-09-23T07:16:39.382Z,111.50
2017-09-23T07:19:06.998Z,113.67
2017-09-23T07:21:35.358Z,109.93
2017-09-23T07:24:03.075Z,112.93
2017-09-23T07:26:30.698Z,122.17
2017-09-23T07:28:58.282Z,115.40
2017-09-23T07:31:25.872Z,109.57
2017-09-23T07:33:53.436Z,117.00
2017-09-23T07:36:21.043Z,113.20
2017-09-23T07:38:48.643Z,106.27
2017-09-23T07:41:16.234Z,106.80
2017-09-23T07:43:43.838Z,115.63
2017-09-23T07:46:12.277Z,109.13
2017-09-23T07:48:39.878Z,109.23
2017-09-23T07:51:08.450Z,110.70
2017-09-23T07:53:36.070Z,101.70
2017-09-23T07:56:03.678Z,97.03
2017-09-23T07:58:32.078Z,102.40
2017-09-23T08:01:00.456Z,93.00
2017-09-23T08:03:29.098Z,101.37
2017-09-23T08:05:56.679Z,102.67
2017-09-23T08:08:24.278Z,91.60
2017-09-23T08:10:51.870Z,96.30
2017-09-23T08:13:19.433Z,94.67
2017-09-23T08:15:47.028Z,99.57
2017-09-23T08:18:14.635Z,93.10
2017-09-23T08:20:42.224Z,102.70
2017-09-23T08:23:09.893Z,89.57
2017-09-23T08:25:37.517Z,89.80
2017-09-23T08:28:05.087Z,93.20
2017-09-23T08:30:32.690Z,87.63
2017-09-23T08:33:00.307Z,93.27
2017-09-23T08:35:28.272Z,85.80
2017-09-23T08:37:55.902Z,94.23
2017-09-23T08:40:23.510Z,83.63
2017-09-23T08:42:51.149Z,89.83
2017-09-23T08:45:18.734Z,83.20
2017-09-23T08:47:46.336Z,83.77
2017-09-23T08:50:13.911Z,85.27
2017-09-23T08:52:42.274Z,89.63
2017-09-23T08:55:09.868Z,83.27
2017-09-23T08:57:37.439Z,85.37
2017-09-23T09:00:05.058Z,88.63
2017-09-23T09:02:32.691Z,79.83
2017-09-23T09:05:00.281Z,85.60
2017-09-23T09:07:27.889Z,81.10
2017-09-23T09:09:56.718Z,88.83
2017-09-23T09:12:24.293Z,92.47
2017-09-23T09:14:51.861Z,94.27
2017-09-23T09:17:20.243Z,98.50
2017-09-23T09:19:47.831Z,96.77
2017-09-23T09:22:16.649Z,93.40
2017-09-23T09:24:44.239Z,95.43
2017-09-23T09:27:11.795Z,92.57
2017-09-23T09:29:39.394Z,93.07
2017-09-23T09:32:07.741Z,80.90
2017-09-23T09:34:35.354Z,88.53
2017-09-23T09:37:02.942Z,80.53
2017-09-23T09:39:30.551Z,81.37
2017-09-23T09:41:58.930Z,82.20
2017-09-23T09:44:27.308Z,79.90
2017-09-23T09:46:55.653Z,82.40
2017-09-23T09:49:23.215Z,87.70
2017-09-23T09:51:50.844Z,84.67
2017-09-23T09:54:18.445Z,77.60
2017-09-23T09:56:46.017Z,76.30
2017-09-23T09:59:13.603Z,79.90
2017-09-23T10:01:41.973Z,82.73
2017-09-23T10:04:10.318Z,78.97
2017-09-23T10:06:37.894Z,76.07
2017-09-23T10:09:05.815Z,73.17
2017-09-23T10:11:33.402Z,71.23
2017-09-23T10:14:00.955Z,76.77
2017-09-23T10:16:28.550Z,83.57
2017-09-23T10:18:56.166Z,77.83
2017-09-23T10:21:23.753Z,74.87
2017-09-23T10:23:51.351Z,77.80
2017-09-23T10:26:19.713Z,74.30
2017-09-23T10:28:47.304Z,78.20
2017-09-23T10:31:14.941Z,72.93
2017-09-23T10:33:42.499Z,76.47
2017-09-23T10:36:10.099Z,70.33
2017-09-23T10:38:37.694Z,69.87
2017-09-23T10:41:05.297Z,71.17
2017-09-23T10:43:33.657Z,79.63
2017-09-23T10:46:01.235Z,71.77
2017-09-23T10:48:28.845Z,82.53
2017-09-23T10:50:56.438Z,76.83
2017-09-23T10:53:24.067Z,80.70
2017-09-23T10:55:51.672Z,67.90
2017-09-23T10:58:29.398Z,75.07
2017-09-23T11:00:57.009Z,76.07
2017-09-23T11:03:24.619Z,79.80
2017-09-23T11:05:52.186Z,70.80
2017-09-23T11:08:19.790Z,77.17
2017-09-23T11:10:47.410Z,78.03
2017-09-23T11:13:23.953Z,69.47
2017-09-23T11:15:51.642Z,69.40
2017-09-23T11:18:19.213Z,74.67
2017-09-23T11:20:46.823Z,70.10
2017-09-23T11:23:14.406Z,74.90
2017-09-23T11:25:42.766Z,70.03
2017-09-23T11:28:21.723Z,67.93
2017-09-23T11:30:49.569Z,69.80
2017-09-23T11:33:17.171Z,82.27
2017-09-23T11:35:44.738Z,75.67
2017-09-23T11:38:13.138Z,78.73
2017-09-23T11:40:40.697Z,82.70
2017-09-23T11:43:08.275Z,73.50
2017-09-23T11:45:35.859Z,75.10
2017-09-23T11:48:03.451Z,66.53
2017-09-23T11:50:31.046Z,74.60
2017-09-23T11:52:59.527Z,64.63
2017-09-23T11:55:27.133Z,70.43
2017-09-23T11:57:55.508Z,62.27
2017-09-23T12:00:23.132Z,58.87
2017-09-23T12:02:50.721Z,60.73
2017-09-23T12:05:18.325Z,62.20
2017-09-23T12:07:45.910Z,62.40
2017-09-23T12:10:13.551Z,73.00
2017-09-23T12:12:41.125Z,66.40
2017-09-23T12:15:08.704Z,62.47
2017-09-23T12:17:36.286Z,59.90
2017-09-23T12:20:03.897Z,58.57
2017-09-23T12:22:31.489Z,67.57
2017-09-23T12:24:59.215Z,60.77
2017-09-23T12:27:26.894Z,60.57
2017-09-23T12:29:54.458Z,58.97
2017-09-23T12:32:22.067Z,58.50
2017-09-23T12:34:50.401Z,56.17
2017-09-23T12:37:20.482Z,57.67
2017-09-23T12:39:48.224Z,62.80
2017-09-23T12:42:15.807Z,52.83
2017-09-23T12:44:44.153Z,59.70
2017-09-23T12:47:11.729Z,61.93
2017-09-23T12:49:39.347Z,66.67
2017-09-23T12:52:06.924Z,49.73
2017-09-23T12:54:34.630Z,62.90
2017-09-23T12:57:02.974Z,62.30
2017-09-23T12:59:30.642Z,60.43
2017-09-23T13:01:58.296Z,57.50
2017-09-23T13:04:26.172Z,57.87
2017-09-23T13:06:53.841Z,54.10
2017-09-23T13:09:21.421Z,55.40
2017-09-23T13:11:49.790Z,54.87
2017-09-23T13:14:17.406Z,63.57
2017-09-23T13:16:45.004Z,63.40
2017-09-23T13:19:12.586Z,57.10
2017-09-23T13:21:40.938Z,56.97
2017-09-23T13:24:08.537Z,59.23
2017-09-23T13:26:36.884Z,58.40
2017-09-23T13:29:04.510Z,59.97
2017-09-23T13:31:32.162Z,62.50
2017-09-23T13:33:59.755Z,60.10
2017-09-23T13:36:28.272Z,58.43
2017-09-23T13:38:56.623Z,56.30
2017-09-23T13:41:24.235Z,56.80
2017-09-23T13:43:51.824Z,58.33
2017-09-23T13:46:19.387Z,58.63
2017-09-23T13:48:47.013Z,59.17
2017-09-23T13:51:15.347Z,61.13
2017-09-23T13:53:42.930Z,59.37
2017-09-23T13:56:11.282Z,68.63
2017-09-23T13:58:38.885Z,64.93
2017-09-23T14:01:07.253Z,58.30
2017-09-23T14:03:35.594Z,60.90
2017-09-23T14:06:03.181Z,57.67
2017-09-23T14:08:30.751Z,63.60
2017-09-23T14:10:58.369Z,70.50
2017-09-23T14:13:25.958Z,54.87
2017-09-23T14:15:53.569Z,65.40
2017-09-23T14:18:21.325Z,64.40
2017-09-23T14:20:48.962Z,64.53
2017-09-23T14:23:16.620Z,65.70
2017-09-23T14:25:44.327Z,69.67
2017-09-23T14:28:11.917Z,65.27
2017-09-23T14:30:39.537Z,58.40
2017-09-23T14:33:07.959Z,60.50
2017-09-23T14:35:35.539Z,58.27
2017-09-23T14:38:03.106Z,59.87
2017-09-23T14:40:31.492Z,66.20
2017-09-23T14:42:59.068Z,63.83
2017-09-23T14:45:27.407Z,59.70
2017-09-23T14:47:55.026Z,60.00
2017-09-23T14:50:22.623Z,60.70
2017-09-23T14:52:50.257Z,63.30
2017-09-23T14:55:17.849Z,68.90
2017-09-23T14:57:45.444Z,62.97
2017-09-23T15:00:13.779Z,63.53
2017-09-23T15:02:41.379Z,58.67
2017-09-23T15:05:08.978Z,61.17
2017-09-23T15:10:11.434Z,56.50
2017-09-23T15:12:39.036Z,59.00
2017-09-23T15:15:06.669Z,65.13
2017-09-23T15:17:35.014Z,54.23
2017-09-23T15:20:02.635Z,61.07
2017-09-23T15:22:30.665Z,62.73
2017-09-23T15:24:58.245Z,65.40
2017-09-23T15:27:26.615Z,61.73
2017-09-23T15:29:55.048Z,61.90
2017-09-23T15:32:23.392Z,65.60
2017-09-23T15:34:51.745Z,68.50
2017-09-23T15:37:19.339Z,63.87
2017-09-23T15:39:47.707Z,58.60
2017-09-23T15:42:16.073Z,64.33
2017-09-23T15:44:43.634Z,57.37
2017-09-23T15:47:11.310Z,50.97
2017-09-23T15:49:39.674Z,56.43
2017-09-23T15:52:07.270Z,60.70
2017-09-23T15:54:34.854Z,57.10
2017-09-23T15:57:02.463Z,59.17
2017-09-23T15:59:30.042Z,57.57
2017-09-23T16:01:58.397Z,355.67
2017-09-23T16:04:26.023Z,60.50
2017-09-23T16:06:53.592Z,61.90
2017-09-23T16:09:21.162Z,73.17
2017-09-23T16:11:48.811Z,65.03
2017-09-23T16:14:16.389Z,61.03
2017-09-23T16:16:43.976Z,94.37
2017-09-23T16:19:12.318Z,67.07
2017-09-23T16:21:39.929Z,66.33
2017-09-23T16:24:08.284Z,75.07
2017-09-23T16:26:35.938Z,69.13
2017-09-23T16:29:03.571Z,66.90
2017-09-23T16:31:31.150Z,62.07
2017-09-23T16:33:58.727Z,68.87
2017-09-23T16:36:26.300Z,66.57
2017-09-23T16:38:54.729Z,69.23
2017-09-23T16:41:22.321Z,65.23
2017-09-23T16:43:49.969Z,66.87
2017-09-23T16:46:27.209Z,68.10
2017-09-23T16:48:56.840Z,67.80
2017-09-23T16:51:25.255Z,70.00
2017-09-23T16:53:52.894Z,71.93
2017-09-23T16:56:20.523Z,73.37
2017-09-23T16:58:48.878Z,81.70
2017-09-23T17:01:16.471Z,74.70
2017-09-23T17:03:44.079Z,75.93
2017-09-23T17:06:11.710Z,79.27
2017-09-23T17:08:39.305Z,81.40
2017-09-23T17:11:06.938Z,92.97
2017-09-23T17:13:34.501Z,79.33
2017-09-23T17:16:02.138Z,93.90
2017-09-23T17:18:30.498Z,90.83
2017-09-23T17:21:00.250Z,86.43
2017-09-23T17:23:27.862Z,84.50
2017-09-23T17:25:55.458Z,89.50
2017-09-23T17:28:24.084Z,89.50
2017-09-23T17:30:51.846Z,97.67
2017-09-23T17:33:19.439Z,91.87
2017-09-23T17:35:47.083Z,85.67
2017-09-23T17:38:15.537Z,84.83
2017-09-23T17:40:43.181Z,95.43
2017-09-23T17:43:10.769Z,99.23
2017-09-23T17:45:38.351Z,95.07
2017-09-23T17:48:06.049Z,95.53
2017-09-23T17:50:34.408Z,109.53
2017-09-23T17:53:02.037Z,96.03
2017-09-23T17:55:29.606Z,98.60
2017-09-23T17:57:57.233Z,115.53
2017-09-23T18:00:24.832Z,100.00
2017-09-23T18:02:52.427Z,97.93
2017-09-23T18:05:20.776Z,98.23
2017-09-23T18:07:48.351Z,96.47
2017-09-23T18:10:15.938Z,93.50
2017-09-23T18:12:44.276Z,93.90
2017-09-23T18:15:11.861Z,98.40
2017-09-23T18:17:39.443Z,90.03
2017-09-23T18:20:07.792Z,101.10
2017-09-23T18:22:35.367Z,94.80
2017-09-23T18:25:02.961Z,84.60
2017-09-23T18:27:30.549Z,96.03
2017-09-23T18:29:58.171Z,85.40
2017-09-23T18:32:26.545Z,88.40
2017-09-23T18:34:54.905Z,82.30
2017-09-23T18:37:23.252Z,84.87
2017-09-23T18:40:00.612Z,102.33
2017-09-23T18:42:28.402Z,87.67
2017-09-23T18:44:56.009Z,83.13
2017-09-23T18:47:24.372Z,88.73
2017-09-23T18:49:59.048Z,88.87
2017-09-23T18:52:26.769Z,87.83
2017-09-23T18:54:54.344Z,82.10
2017-09-23T18:57:22.825Z,78.47
2017-09-23T18:59:50.407Z,86.40
2017-09-23T19:02:18.091Z,86.87
2017-09-23T19:04:45.860Z,86.63
2017-09-23T19:07:16.800Z,91.43
2017-09-23T19:09:45.243Z,87.37
2017-09-23T19:12:13.583Z,93.90
2017-09-23T19:14:41.200Z,81.80
2017-09-23T19:17:08.745Z,87.03
2017-09-23T19:19:36.342Z,88.27
2017-09-23T19:22:03.938Z,89.80
2017-09-23T19:24:31.542Z,88.57
2017-09-23T19:26:59.256Z,93.23
2017-09-23T19:29:26.876Z,92.20
2017-09-23T19:31:54.427Z,89.77
2017-09-23T19:34:22.042Z,89.70
2017-09-23T19:36:49.622Z,88.23
2017-09-23T19:39:18.038Z,96.87
2017-09-23T19:41:45.639Z,96.03
2017-09-23T19:44:13.214Z,98.23
2017-09-23T19:46:40.775Z,96.90
2017-09-23T19:49:08.388Z,93.00
2017-09-23T19:51:35.965Z,89.97
2017-09-23T19:54:04.337Z,99.07
2017-09-23T19:56:31.917Z,97.57
2017-09-23T19:58:59.544Z,98.47
2017-09-23T20:01:27.114Z,101.10
2017-09-23T20:03:54.741Z,105.80
2017-09-23T20:06:23.094Z,92.33
2017-09-23T20:08:50.666Z,83.90
2017-09-23T20:11:18.266Z,83.90
2017-09-23T20:13:45.837Z,84.07
2017-09-23T20:16:13.440Z,79.43
2017-09-23T20:18:41.036Z,83.27
2017-09-23T20:21:09.392Z,83.37
2017-09-23T20:23:36.958Z,83.33
2017-09-23T20:26:04.567Z,100.13
2017-09-23T20:28:32.139Z,93.50
2017-09-23T20:30:59.741Z,86.67
2017-09-23T20:33:27.369Z,86.53
2017-09-23T20:35:54.961Z,79.10
2017-09-23T20:38:22.546Z,89.17
2017-09-23T20:40:50.939Z,91.90
2017-09-23T20:43:18.529Z,77.27
2017-09-23T20:45:46.110Z,76.33
2017-09-23T20:48:13.712Z,83.37
2017-09-23T20:50:42.054Z,88.43
2017-09-23T20:53:09.642Z,84.37
2017-09-23T20:55:38.013Z,95.73
2017-09-23T20:58:06.378Z,96.30
2017-09-23T21:00:33.959Z,107.33
2017-09-23T21:03:02.310Z,93.77
2017-09-23T21:05:29.892Z,104.30
2017-09-23T21:07:57.500Z,103.70
2017-09-23T21:10:25.090Z,94.87
2017-09-23T21:12:52.683Z,93.67
2017-09-23T21:15:21.041Z,93.10
2017-09-23T21:17:48.630Z,90.50
2017-09-23T21:20:16.993Z,92.47
2017-09-23T21:22:44.579Z,93.33
2017-09-23T21:25:12.156Z,89.33
2017-09-23T21:27:39.721Z,92.93
2017-09-23T21:30:07.314Z,90.93
2017-09-23T21:32:34.918Z,94.80
2017-09-23T21:35:03.286Z,85.00
2017-09-23T21:37:31.643Z,76.77
2017-09-23T21:39:59.255Z,77.17
2017-09-23T21:42:26.857Z,98.77
2017-09-23T21:44:54.441Z,92.03
2017-09-23T21:47:22.061Z,90.23
2017-09-23T21:49:49.670Z,87.83
2017-09-23T21:52:18.066Z,88.27
2017-09-23T21:54:46.409Z,94.70
2017-09-23T21:57:13.989Z,86.33
2017-09-23T21:59:42.348Z,99.07
2017-09-23T22:02:09.927Z,93.70
2017-09-23T22:04:37.513Z,89.60
2017-09-23T22:07:05.098Z,75.50
2017-09-23T22:09:32.689Z,78.90
2017-09-23T22:12:00.262Z,86.00
2017-09-23T22:14:27.856Z,86.70
2017-09-23T22:16:55.446Z,90.27
2017-09-23T22:19:23.061Z,82.43
2017-09-23T22:21:51.420Z,82.53
2017-09-23T22:24:19.006Z,75.13
2017-09-23T22:26:47.359Z,85.27
2017-09-23T22:29:14.938Z,100.30
2017-09-23T22:31:42.651Z,93.77
2017-09-23T22:34:10.228Z,93.60
2017-09-23T22:36:37.809Z,87.87
2017-09-23T22:39:05.407Z,82.93
2017-09-23T22:41:33.768Z,71.80
2017-09-23T22:44:02.128Z,74.43
2017-09-23T22:46:29.735Z,80.87
2017-09-23T22:48:57.426Z,78.60
2017-09-23T22:51:25.019Z,82.47
2017-09-23T22:53:52.832Z,90.73
2017-09-23T22:56:20.604Z,84.50
2017-09-23T22:58:48.206Z,98.27
2017-09-23T23:01:19.950Z,96.57
2017-09-23T23:03:47.554Z,94.47
2017-09-23T23:06:15.907Z,83.63
2017-09-23T23:08:43.478Z,76.83
2017-09-23T23:11:11.850Z,80.80
2017-09-23T23:13:39.420Z,80.57
2017-09-23T23:16:08.528Z,82.97
2017-09-23T23:18:36.179Z,96.70
2017-09-23T23:21:03.738Z,95.80
2017-09-23T23:23:32.078Z,96.20
2017-09-23T23:25:59.694Z,83.50
2017-09-23T23:28:28.043Z,88.20
2017-09-23T23:30:55.666Z,94.70
2017-09-23T23:33:23.257Z,91.10
2017-09-23T23:35:50.871Z,100.57
2017-09-23T23:38:18.470Z,102.90
2017-09-23T23:40:51.560Z,89.60
2017-09-23T23:43:19.949Z,82.43
2017-09-23T23:45:47.554Z,79.10
2017-09-23T23:48:19.138Z,72.37
2017-09-23T23:50:46.722Z,73.60
2017-09-23T23:53:15.086Z,83.27
2017-09-23T23:55:42.661Z,85.93
2017-09-23T23:58:10.246Z,83.30
